createdAt,value
2023-04-30T00:00:25.224Z,9.50
2023-04-30T00:01:26.824Z,9.33
2023-04-30T00:02:28.327Z,9.50
2023-04-30T00:03:29.958Z,10.23
2023-04-30T00:04:31.532Z,14.47
2023-04-30T00:05:32.877Z,9.07
2023-04-30T00:06:34.223Z,9.17
2023-04-30T00:07:35.596Z,9.67
2023-04-30T00:08:36.898Z,8.83
2023-04-30T00:09:38.338Z,8.77
2023-04-30T00:10:39.701Z,11.73
2023-04-30T00:11:41.056Z,9.63
2023-04-30T00:12:42.397Z,9.93
2023-04-30T00:13:43.696Z,10.10
2023-04-30T00:14:45.007Z,10.10
2023-04-30T00:15:46.343Z,11.40
2023-04-30T00:16:47.723Z,9.60
2023-04-30T00:17:49.084Z,10.37
2023-04-30T00:18:50.503Z,10.67
2023-04-30T00:19:51.893Z,10.77
2023-04-30T00:20:53.535Z,9.47
2023-04-30T00:21:54.989Z,10.33
2023-04-30T00:22:56.450Z,10.23
2023-04-30T00:24:00.313Z,8.60
2023-04-30T00:25:01.749Z,9.57
2023-04-30T00:26:03.125Z,9.03
2023-04-30T00:27:04.474Z,9.80
2023-04-30T00:28:06.111Z,8.93
2023-04-30T00:29:07.435Z,9.53
2023-04-30T00:30:08.943Z,9.30
2023-04-30T00:31:10.351Z,11.67
2023-04-30T00:32:11.848Z,10.00
2023-04-30T00:33:13.222Z,9.43
2023-04-30T00:34:15.092Z,10.17
2023-04-30T00:35:21.508Z,12.23
2023-04-30T00:36:23.075Z,9.63
2023-04-30T00:37:24.653Z,11.07
2023-04-30T00:38:26.189Z,10.43
2023-04-30T00:39:27.605Z,10.50
2023-04-30T00:40:29.060Z,11.30
2023-04-30T00:41:31.828Z,9.90
2023-04-30T00:42:33.427Z,10.33
2023-04-30T00:43:35.005Z,9.87
2023-04-30T00:44:36.588Z,9.70
2023-04-30T00:45:38.596Z,9.70
2023-04-30T00:46:40.844Z,10.20
2023-04-30T00:47:42.509Z,9.00
2023-04-30T00:48:44.106Z,10.30
2023-04-30T00:49:45.599Z,9.83
2023-04-30T00:50:46.974Z,9.97
2023-04-30T00:51:48.439Z,9.10
2023-04-30T00:52:50.004Z,9.67
2023-04-30T00:53:51.861Z,9.37
2023-04-30T00:54:54.502Z,9.97
2023-04-30T00:55:56.409Z,9.03
2023-04-30T00:57:01.469Z,11.07
2023-04-30T00:58:03.132Z,8.60
2023-04-30T00:59:07.233Z,9.97
2023-04-30T01:00:14.111Z,10.73
2023-04-30T01:01:15.635Z,9.37
2023-04-30T01:02:17.381Z,9.23
2023-04-30T01:03:19.570Z,10.93
2023-04-30T01:04:21.215Z,11.40
2023-04-30T01:05:26.394Z,11.17
2023-04-30T01:06:28.323Z,9.10
2023-04-30T01:07:30.655Z,9.47
2023-04-30T01:08:32.455Z,11.17
2023-04-30T01:09:34.152Z,9.10
2023-04-30T01:10:42.172Z,10.00
2023-04-30T01:12:02.139Z,9.80
2023-04-30T01:13:08.708Z,10.13
2023-04-30T01:14:29.208Z,8.43
2023-04-30T01:15:35.050Z,9.53
2023-04-30T01:16:48.014Z,11.30
2023-04-30T01:18:12.783Z,9.60
2023-04-30T01:19:34.517Z,9.83
2023-04-30T01:20:40.277Z,10.27
2023-04-30T01:21:42.955Z,11.33
2023-04-30T01:22:56.448Z,10.00
2023-04-30T01:24:06.879Z,11.17
2023-04-30T01:25:16.675Z,10.33
2023-04-30T01:26:39.128Z,9.23
2023-04-30T01:27:59.035Z,10.77
2023-04-30T01:29:02.789Z,9.70
2023-04-30T01:30:09.699Z,10.80
2023-04-30T01:31:12.839Z,10.63
2023-04-30T01:32:23.727Z,10.57
2023-04-30T01:33:25.491Z,12.33
2023-04-30T01:34:27.587Z,11.07
2023-04-30T01:35:37.398Z,10.07
2023-04-30T01:36:57.706Z,12.00
2023-04-30T01:38:10.395Z,10.97
2023-04-30T01:39:21.278Z,10.20
2023-04-30T01:40:28.256Z,10.27
2023-04-30T01:41:32.976Z,9.63
2023-04-30T01:42:41.978Z,10.40
2023-04-30T01:43:53.227Z,12.20
2023-04-30T01:44:58.554Z,10.27
2023-04-30T01:46:19.505Z,10.77
2023-04-30T01:47:25.954Z,9.63
2023-04-30T01:48:33.797Z,9.30
2023-04-30T01:49:50.018Z,10.17
2023-04-30T01:50:53.442Z,11.20
2023-04-30T01:52:05.267Z,9.73
2023-04-30T01:53:09.642Z,9.30
2023-04-30T01:54:17.329Z,11.00
2023-04-30T01:55:21.872Z,9.47
2023-04-30T01:56:28.176Z,10.10
2023-04-30T01:57:33.069Z,9.47
2023-04-30T01:58:37.803Z,10.20
2023-04-30T01:59:39.750Z,10.30
2023-04-30T02:00:44.427Z,9.53
2023-04-30T02:01:46.835Z,9.57
2023-04-30T02:02:51.712Z,9.87
2023-04-30T02:03:53.695Z,10.37
2023-04-30T02:04:55.640Z,9.20
2023-04-30T02:05:59.335Z,11.60
2023-04-30T02:07:01.152Z,10.50
2023-04-30T02:08:03.591Z,9.17
2023-04-30T02:09:11.308Z,10.00
2023-04-30T02:10:13.260Z,10.60
2023-04-30T02:11:14.624Z,9.63
2023-04-30T02:12:15.984Z,11.07
2023-04-30T02:13:17.512Z,9.47
2023-04-30T02:14:25.797Z,10.90
2023-04-30T02:15:30.862Z,9.57
2023-04-30T02:16:32.483Z,9.50
2023-04-30T02:17:34.873Z,10.73
2023-04-30T02:18:36.516Z,10.83
2023-04-30T02:19:41.809Z,8.90
2023-04-30T02:20:45.568Z,10.47
2023-04-30T02:21:47.300Z,9.20
2023-04-30T02:22:49.007Z,8.93
2023-04-30T02:23:51.001Z,9.07
2023-04-30T02:26:11.710Z,10.90
2023-04-30T02:27:13.140Z,9.37
2023-04-30T02:28:14.570Z,9.50
2023-04-30T02:29:17.340Z,9.63
2023-04-30T02:30:47.120Z,9.73
2023-04-30T02:31:50.980Z,9.37
2023-04-30T02:32:52.431Z,10.20
2023-04-30T02:33:54.177Z,9.13
2023-04-30T02:34:55.826Z,8.87
2023-04-30T02:35:59.634Z,9.17
2023-04-30T02:37:07.091Z,9.57
2023-04-30T02:38:08.662Z,9.53
2023-04-30T02:39:10.740Z,8.10
2023-04-30T02:40:12.654Z,10.07
2023-04-30T02:41:14.887Z,10.87
2023-04-30T02:42:18.646Z,8.77
2023-04-30T02:43:20.448Z,10.87
2023-04-30T02:44:27.462Z,9.00
2023-04-30T02:45:32.126Z,9.70
2023-04-30T02:46:33.747Z,10.63
2023-04-30T02:47:35.727Z,10.03
2023-04-30T02:48:37.291Z,10.37
2023-04-30T02:49:46.127Z,8.57
2023-04-30T02:50:47.735Z,9.10
2023-04-30T02:51:49.110Z,9.87
2023-04-30T02:52:51.088Z,9.20
2023-04-30T02:53:52.674Z,10.80
2023-04-30T02:54:54.537Z,10.73
2023-04-30T02:55:56.278Z,11.90
2023-04-30T02:57:00.085Z,9.50
2023-04-30T02:58:01.614Z,10.63
2023-04-30T02:59:02.973Z,8.80
2023-04-30T03:00:04.816Z,12.80
2023-04-30T03:01:07.239Z,8.33
2023-04-30T03:02:13.196Z,8.27
2023-04-30T03:03:15.948Z,9.17
2023-04-30T03:04:19.133Z,7.43
2023-04-30T03:05:20.947Z,8.33
2023-04-30T03:06:22.585Z,8.63
2023-04-30T03:07:24.162Z,8.57
2023-04-30T03:08:26.272Z,7.97
2023-04-30T03:09:28.129Z,7.73
2023-04-30T03:10:29.750Z,7.93
2023-04-30T03:11:31.232Z,8.33
2023-04-30T03:12:33.098Z,8.57
2023-04-30T03:13:34.701Z,8.00
2023-04-30T03:14:36.404Z,8.03
2023-04-30T03:15:37.859Z,7.50
2023-04-30T03:16:39.602Z,10.27
2023-04-30T03:17:50.623Z,7.87
2023-04-30T03:18:52.267Z,9.23
2023-04-30T03:19:56.861Z,7.60
2023-04-30T03:20:58.924Z,8.83
2023-04-30T03:22:00.513Z,8.07
2023-04-30T03:23:02.222Z,9.43
2023-04-30T03:24:04.355Z,8.40
2023-04-30T03:25:06.310Z,7.90
2023-04-30T03:26:08.515Z,7.43
2023-04-30T03:27:10.200Z,7.60
2023-04-30T03:28:11.613Z,8.83
2023-04-30T03:29:13.312Z,7.70
2023-04-30T03:30:14.736Z,7.90
2023-04-30T03:31:16.460Z,8.37
2023-04-30T03:32:21.112Z,9.07
2023-04-30T03:33:23.363Z,8.50
2023-04-30T03:34:25.030Z,10.17
2023-04-30T03:35:26.427Z,9.67
2023-04-30T03:36:28.406Z,7.57
2023-04-30T03:37:29.916Z,8.90
2023-04-30T03:38:34.314Z,7.70
2023-04-30T03:39:36.776Z,8.10
2023-04-30T03:40:38.429Z,8.37
2023-04-30T03:41:39.952Z,7.43
2023-04-30T03:42:42.745Z,8.60
2023-04-30T03:43:46.896Z,8.17
2023-04-30T03:44:48.300Z,7.43
2023-04-30T03:45:49.874Z,7.47
2023-04-30T03:46:51.358Z,8.13
2023-04-30T03:47:53.336Z,8.53
2023-04-30T03:48:54.954Z,8.23
2023-04-30T03:49:59.178Z,7.23
2023-04-30T03:51:01.572Z,8.27
2023-04-30T03:52:03.566Z,7.53
2023-04-30T03:53:05.258Z,8.10
2023-04-30T03:54:06.992Z,9.17
2023-04-30T03:55:08.580Z,11.30
2023-04-30T03:56:11.232Z,7.47
2023-04-30T03:57:14.161Z,7.90
2023-04-30T03:58:15.691Z,8.93
2023-04-30T03:59:17.467Z,7.90
2023-04-30T04:00:19.988Z,8.03
2023-04-30T04:01:24.773Z,7.63
2023-04-30T04:02:26.501Z,7.30
2023-04-30T04:03:27.992Z,7.00
2023-04-30T04:04:32.003Z,7.93
2023-04-30T04:05:33.613Z,7.40
2023-04-30T04:06:35.338Z,8.40
2023-04-30T04:07:36.810Z,7.87
2023-04-30T04:08:38.715Z,7.47
2023-04-30T04:09:44.713Z,8.20
2023-04-30T04:10:46.915Z,7.67
2023-04-30T04:11:51.708Z,9.80
2023-04-30T04:12:53.450Z,9.17
2023-04-30T04:13:55.922Z,7.37
2023-04-30T04:14:57.599Z,8.70
2023-04-30T04:15:59.808Z,8.47
2023-04-30T04:17:01.994Z,8.93
2023-04-30T04:18:03.756Z,10.33
2023-04-30T04:19:05.642Z,8.63
2023-04-30T04:20:13.335Z,10.23
2023-04-30T04:21:15.517Z,10.07
2023-04-30T04:22:17.053Z,7.97
2023-04-30T04:23:19.530Z,9.20
2023-04-30T04:24:23.557Z,8.17
2023-04-30T04:25:25.375Z,8.83
2023-04-30T04:26:29.084Z,12.07
2023-04-30T04:27:30.724Z,9.63
2023-04-30T04:28:32.968Z,9.00
2023-04-30T04:29:34.892Z,9.00
2023-04-30T04:30:36.724Z,7.93
2023-04-30T04:31:38.823Z,7.90
2023-04-30T04:32:48.126Z,8.67
2023-04-30T04:33:53.315Z,12.00
2023-04-30T04:34:55.345Z,8.00
2023-04-30T04:35:57.971Z,8.33
2023-04-30T04:36:59.608Z,9.17
2023-04-30T04:38:02.117Z,8.53
2023-04-30T04:39:03.880Z,9.37
2023-04-30T04:40:05.600Z,9.80
2023-04-30T04:41:07.119Z,8.13
2023-04-30T04:42:08.522Z,9.50
2023-04-30T04:43:09.859Z,8.90
2023-04-30T04:44:11.557Z,7.97
2023-04-30T04:45:12.988Z,8.17
2023-04-30T04:46:16.484Z,8.47
2023-04-30T04:47:21.763Z,9.13
2023-04-30T04:48:23.254Z,9.53
2023-04-30T04:49:24.557Z,9.27
2023-04-30T04:50:27.089Z,10.50
2023-04-30T04:51:28.502Z,8.87
2023-04-30T04:52:29.946Z,9.03
2023-04-30T04:53:32.899Z,8.23
2023-04-30T04:54:35.990Z,9.17
2023-04-30T04:55:37.476Z,9.27
2023-04-30T04:56:38.883Z,8.03
2023-04-30T04:57:44.065Z,9.63
2023-04-30T04:58:45.664Z,9.43
2023-04-30T04:59:46.984Z,8.33
2023-04-30T05:00:48.313Z,10.30
2023-04-30T05:01:49.765Z,8.97
2023-04-30T05:02:51.365Z,9.37
2023-04-30T05:03:54.237Z,9.17
2023-04-30T05:04:56.006Z,8.57
2023-04-30T05:05:57.921Z,11.77
2023-04-30T05:07:00.554Z,10.87
2023-04-30T05:08:01.896Z,8.97
2023-04-30T05:09:05.290Z,9.40
2023-04-30T05:10:07.301Z,10.87
2023-04-30T05:11:08.638Z,9.60
2023-04-30T05:12:09.991Z,8.53
2023-04-30T05:13:11.386Z,8.63
2023-04-30T05:14:12.761Z,8.80
2023-04-30T05:15:14.127Z,9.20
2023-04-30T05:16:16.401Z,9.70
2023-04-30T05:17:17.714Z,8.77
2023-04-30T05:18:19.510Z,11.17
2023-04-30T05:19:20.823Z,9.30
2023-04-30T05:20:22.144Z,9.93
2023-04-30T05:21:23.670Z,8.60
2023-04-30T05:22:25.307Z,8.37
2023-04-30T05:23:26.945Z,8.37
2023-04-30T05:24:29.336Z,9.37
2023-04-30T05:25:30.671Z,7.57
2023-04-30T05:26:34.870Z,8.43
2023-04-30T05:27:36.263Z,9.10
2023-04-30T05:28:37.585Z,8.17
2023-04-30T05:29:41.109Z,12.47
2023-04-30T05:30:42.504Z,10.23
2023-04-30T05:31:43.873Z,8.53
2023-04-30T05:32:52.204Z,9.83
2023-04-30T05:33:53.664Z,8.23
2023-04-30T05:34:55.758Z,9.40
2023-04-30T05:35:57.158Z,8.23
2023-04-30T05:36:58.455Z,9.50
2023-04-30T05:37:59.770Z,8.30
2023-04-30T05:39:02.339Z,9.23
2023-04-30T05:40:03.781Z,9.07
2023-04-30T05:41:05.291Z,10.07
2023-04-30T05:42:08.753Z,7.43
2023-04-30T05:43:10.409Z,9.63
2023-04-30T05:44:11.736Z,8.97
2023-04-30T05:45:14.659Z,8.07
2023-04-30T05:46:16.095Z,9.90
2023-04-30T05:47:17.607Z,8.13
2023-04-30T05:48:19.012Z,10.57
2023-04-30T05:49:20.503Z,8.63
2023-04-30T05:50:21.812Z,9.80
2023-04-30T05:51:23.252Z,9.57
2023-04-30T05:52:24.619Z,7.50
2023-04-30T05:53:25.931Z,8.63
2023-04-30T05:54:27.224Z,10.23
2023-04-30T05:55:28.588Z,8.90
2023-04-30T05:56:29.922Z,9.50
2023-04-30T05:57:31.234Z,8.57
2023-04-30T05:58:32.803Z,8.00
2023-04-30T05:59:34.199Z,9.07
2023-04-30T06:00:36.018Z,7.93
2023-04-30T06:01:37.406Z,9.27
2023-04-30T06:02:38.897Z,8.10
2023-04-30T06:03:40.360Z,8.77
2023-04-30T06:04:42.347Z,10.10
2023-04-30T06:05:44.470Z,8.73
2023-04-30T06:06:46.070Z,8.73
2023-04-30T06:07:47.543Z,7.87
2023-04-30T06:08:49.005Z,9.20
2023-04-30T06:09:50.328Z,10.13
2023-04-30T06:10:51.636Z,9.37
2023-04-30T06:11:53.057Z,8.07
2023-04-30T06:12:54.405Z,9.23
2023-04-30T06:13:56.056Z,10.10
2023-04-30T06:14:57.860Z,8.30
2023-04-30T06:15:59.239Z,8.13
2023-04-30T06:17:00.780Z,8.53
2023-04-30T06:18:03.620Z,7.43
2023-04-30T06:19:05.005Z,7.57
2023-04-30T06:20:07.154Z,8.00
2023-04-30T06:21:08.687Z,7.90
2023-04-30T06:22:10.051Z,8.60
2023-04-30T06:23:11.544Z,9.33
2023-04-30T06:24:13.153Z,8.03
2023-04-30T06:25:14.706Z,8.10
2023-04-30T06:26:16.263Z,8.63
2023-04-30T06:27:17.675Z,8.63
2023-04-30T06:28:20.649Z,9.10
2023-04-30T06:29:24.365Z,9.57
2023-04-30T06:30:25.722Z,8.30
2023-04-30T06:31:27.323Z,8.13
2023-04-30T06:32:28.811Z,7.53
2023-04-30T06:33:30.278Z,7.10
2023-04-30T06:34:32.432Z,7.93
2023-04-30T06:35:33.835Z,7.17
2023-04-30T06:36:35.206Z,9.73
2023-04-30T06:37:38.049Z,7.33
2023-04-30T06:38:40.275Z,10.17
2023-04-30T06:39:41.609Z,8.53
2023-04-30T06:40:42.897Z,7.93
2023-04-30T06:41:44.200Z,8.13
2023-04-30T06:42:47.477Z,9.50
2023-04-30T06:43:49.123Z,8.00
2023-04-30T06:44:50.584Z,8.27
2023-04-30T06:45:51.997Z,7.47
2023-04-30T06:46:53.319Z,8.63
2023-04-30T06:47:54.703Z,7.97
2023-04-30T06:48:56.161Z,7.90
2023-04-30T06:49:57.552Z,8.17
2023-04-30T06:50:59.056Z,9.60
2023-04-30T06:52:01.470Z,6.80
2023-04-30T06:53:02.924Z,6.37
2023-04-30T06:54:04.262Z,6.83
2023-04-30T06:55:05.760Z,7.77
2023-04-30T06:56:07.300Z,7.53
2023-04-30T06:57:09.212Z,7.57
2023-04-30T06:58:10.517Z,6.60
2023-04-30T06:59:12.211Z,8.17
2023-04-30T07:00:15.362Z,6.90
2023-04-30T07:01:17.497Z,7.70
2023-04-30T07:02:21.223Z,7.37
2023-04-30T07:03:23.375Z,8.57
2023-04-30T07:04:24.763Z,7.07
2023-04-30T07:05:26.549Z,7.30
2023-04-30T07:06:28.544Z,7.97
2023-04-30T07:07:29.939Z,8.67
2023-04-30T07:08:31.223Z,6.30
2023-04-30T07:09:32.909Z,8.43
2023-04-30T07:10:34.344Z,7.17
2023-04-30T07:11:35.669Z,7.10
2023-04-30T07:12:37.125Z,6.73
2023-04-30T07:13:38.554Z,6.07
2023-04-30T07:14:39.995Z,8.00
2023-04-30T07:15:42.170Z,6.83
2023-04-30T07:16:43.704Z,7.13
2023-04-30T07:17:45.136Z,7.63
2023-04-30T07:18:48.814Z,6.70
2023-04-30T07:19:50.219Z,7.70
2023-04-30T07:20:51.503Z,7.97
2023-04-30T07:21:52.851Z,7.33
2023-04-30T07:22:55.567Z,7.37
2023-04-30T07:23:56.847Z,6.47
2023-04-30T07:24:58.319Z,8.50
2023-04-30T07:25:59.644Z,7.07
2023-04-30T07:27:03.010Z,6.90
2023-04-30T07:28:04.346Z,7.10
2023-04-30T07:29:05.723Z,8.13
2023-04-30T07:30:08.748Z,6.67
2023-04-30T07:31:10.133Z,7.37
2023-04-30T07:32:11.518Z,6.53
2023-04-30T07:33:12.899Z,8.50
2023-04-30T07:34:14.271Z,8.73
2023-04-30T07:35:15.981Z,7.33
2023-04-30T07:36:17.340Z,7.33
2023-04-30T07:37:18.689Z,7.10
2023-04-30T07:38:20.088Z,7.10
2023-04-30T07:39:21.426Z,7.33
2023-04-30T07:40:34.929Z,8.30
2023-04-30T07:41:37.454Z,5.80
2023-04-30T07:42:47.774Z,6.83
2023-04-30T07:43:49.125Z,8.00
2023-04-30T07:44:50.535Z,6.33
2023-04-30T07:45:53.433Z,7.13
2023-04-30T07:46:54.848Z,8.13
2023-04-30T07:47:56.252Z,6.83
2023-04-30T07:48:57.790Z,8.10
2023-04-30T07:49:59.111Z,7.27
2023-04-30T07:51:00.521Z,6.83
2023-04-30T07:52:01.944Z,6.33
2023-04-30T07:53:03.418Z,8.00
2023-04-30T07:54:04.847Z,8.00
2023-04-30T07:55:06.456Z,6.93
2023-04-30T07:56:08.274Z,5.87
2023-04-30T07:57:09.624Z,6.17
2023-04-30T07:58:10.952Z,7.00
2023-04-30T07:59:12.413Z,7.17
2023-04-30T08:00:16.832Z,6.13
2023-04-30T08:01:21.788Z,6.30
2023-04-30T08:02:23.402Z,6.17
2023-04-30T08:03:24.951Z,7.43
2023-04-30T08:04:26.780Z,6.07
2023-04-30T08:05:28.340Z,8.33
2023-04-30T08:06:29.792Z,7.27
2023-04-30T08:07:31.120Z,6.90
2023-04-30T08:08:32.548Z,7.23
2023-04-30T08:09:33.954Z,5.37
2023-04-30T08:10:36.888Z,7.20
2023-04-30T08:11:38.249Z,6.97
2023-04-30T08:12:39.705Z,7.33
2023-04-30T08:13:41.913Z,6.10
2023-04-30T08:14:43.246Z,6.75
2023-04-30T08:15:44.617Z,7.23
2023-04-30T08:16:46.016Z,7.10
2023-04-30T08:17:50.943Z,7.10
2023-04-30T08:18:52.316Z,5.63
2023-04-30T08:19:53.845Z,6.30
2023-04-30T08:20:55.460Z,4.90
2023-04-30T08:21:56.814Z,5.60
2023-04-30T08:22:58.300Z,5.90
2023-04-30T08:23:59.838Z,7.20
2023-04-30T08:25:01.987Z,4.23
2023-04-30T08:26:03.541Z,5.27
2023-04-30T08:27:04.941Z,6.30
2023-04-30T08:28:06.610Z,6.07
2023-04-30T08:29:08.400Z,5.43
2023-04-30T08:30:09.909Z,5.13
2023-04-30T08:31:12.244Z,5.77
2023-04-30T08:32:13.623Z,4.60
2023-04-30T08:33:15.039Z,4.97
2023-04-30T08:34:16.470Z,6.27
2023-04-30T08:35:17.951Z,5.60
2023-04-30T08:36:19.680Z,6.60
2023-04-30T08:37:21.107Z,5.00
2023-04-30T08:38:22.609Z,5.70
2023-04-30T08:39:24.687Z,5.83
2023-04-30T08:40:38.670Z,5.07
2023-04-30T08:41:53.828Z,6.20
2023-04-30T08:43:05.094Z,3.93
2023-04-30T08:44:08.380Z,4.07
2023-04-30T08:45:12.803Z,3.43
2023-04-30T08:46:17.932Z,5.93
2023-04-30T08:47:20.683Z,5.03
2023-04-30T08:48:23.755Z,5.07
2023-04-30T08:49:27.096Z,6.50
2023-04-30T08:50:28.616Z,5.47
2023-04-30T08:51:32.048Z,4.90
2023-04-30T08:52:35.579Z,5.10
2023-04-30T08:53:40.178Z,4.00
2023-04-30T08:54:42.238Z,3.33
2023-04-30T08:55:44.148Z,2.97
2023-04-30T08:56:45.671Z,4.17
2023-04-30T08:57:47.145Z,4.13
2023-04-30T08:58:48.834Z,3.97
2023-04-30T08:59:50.378Z,4.50
2023-04-30T09:00:51.762Z,3.30
2023-04-30T09:01:53.989Z,3.53
2023-04-30T09:02:55.717Z,3.00
2023-04-30T09:04:00.374Z,5.00
2023-04-30T09:05:01.911Z,3.07
2023-04-30T09:06:03.405Z,3.87
2023-04-30T09:07:06.270Z,3.00
2023-04-30T09:08:09.078Z,2.77
2023-04-30T09:09:13.970Z,2.97
2023-04-30T09:10:22.032Z,3.47
2023-04-30T09:11:25.101Z,2.87
2023-04-30T09:12:29.405Z,3.70
2023-04-30T09:13:41.719Z,3.33
2023-04-30T09:14:57.832Z,2.23
2023-04-30T09:15:59.536Z,3.17
2023-04-30T09:17:09.828Z,2.47
2023-04-30T09:18:11.785Z,2.73
2023-04-30T09:19:30.119Z,4.57
2023-04-30T09:20:31.562Z,4.30
2023-04-30T09:21:33.841Z,3.40
2023-04-30T09:22:35.904Z,2.43
2023-04-30T09:23:37.567Z,3.97
2023-04-30T09:24:46.641Z,3.10
2023-04-30T09:25:48.746Z,3.37
2023-04-30T09:26:50.778Z,4.97
2023-04-30T09:28:06.971Z,3.23
2023-04-30T09:29:08.555Z,4.70
2023-04-30T09:30:29.878Z,4.40
2023-04-30T09:31:31.306Z,5.70
2023-04-30T09:32:32.704Z,5.13
2023-04-30T09:33:45.988Z,2.97
2023-04-30T09:34:47.403Z,3.80
2023-04-30T09:35:49.162Z,3.40
2023-04-30T09:36:54.874Z,3.67
2023-04-30T09:37:56.351Z,3.50
2023-04-30T09:39:07.197Z,3.50
2023-04-30T09:40:10.487Z,4.73
2023-04-30T09:41:41.961Z,5.53
2023-04-30T09:42:57.902Z,2.67
2023-04-30T09:43:59.341Z,4.07
2023-04-30T09:45:00.660Z,3.23
2023-04-30T09:46:03.526Z,4.20
2023-04-30T09:47:04.941Z,3.43
2023-04-30T09:48:16.529Z,3.37
2023-04-30T09:49:19.102Z,2.37
2023-04-30T09:50:20.379Z,8.13
2023-04-30T09:51:21.730Z,3.70
2023-04-30T09:52:23.024Z,5.27
2023-04-30T09:53:24.573Z,3.50
2023-04-30T09:54:29.694Z,2.70
2023-04-30T09:55:31.402Z,2.37
2023-04-30T09:56:46.608Z,3.17
2023-04-30T09:57:52.373Z,2.20
2023-04-30T09:58:58.219Z,5.77
2023-04-30T10:00:14.413Z,2.40
2023-04-30T10:01:18.559Z,2.83
2023-04-30T10:02:22.588Z,3.73
2023-04-30T10:03:24.180Z,2.90
2023-04-30T10:04:26.895Z,2.97
2023-04-30T10:05:28.543Z,4.47
2023-04-30T10:06:35.322Z,3.40
2023-04-30T10:07:38.802Z,3.43
2023-04-30T10:08:42.177Z,3.43
2023-04-30T10:10:08.475Z,5.47
2023-04-30T10:11:12.938Z,3.27
2023-04-30T10:12:15.879Z,3.63
2023-04-30T10:13:18.863Z,4.73
2023-04-30T10:14:20.971Z,2.90
2023-04-30T10:15:26.482Z,4.83
2023-04-30T10:16:48.266Z,4.13
2023-04-30T10:17:57.225Z,3.37
2023-04-30T10:18:59.912Z,3.03
2023-04-30T10:20:05.628Z,3.40
2023-04-30T10:21:12.592Z,3.43
2023-04-30T10:22:14.561Z,2.33
2023-04-30T10:23:16.076Z,5.30
2023-04-30T10:24:19.547Z,2.10
2023-04-30T10:25:22.996Z,3.67
2023-04-30T10:26:24.693Z,4.77
2023-04-30T10:27:26.092Z,3.43
2023-04-30T10:28:27.790Z,3.60
2023-04-30T10:29:29.679Z,3.43
2023-04-30T10:30:31.837Z,4.10
2023-04-30T10:31:34.139Z,4.47
2023-04-30T10:32:41.624Z,5.97
2023-04-30T10:34:10.263Z,3.87
2023-04-30T10:35:19.666Z,2.70
2023-04-30T10:38:06.716Z,3.20
2023-04-30T10:39:29.077Z,4.30
2023-04-30T10:40:35.429Z,2.93
2023-04-30T10:41:37.025Z,5.63
2023-04-30T10:42:48.142Z,3.63
2023-04-30T10:44:21.055Z,3.10
2023-04-30T10:45:38.773Z,3.03
2023-04-30T10:47:08.519Z,5.03
2023-04-30T10:48:15.054Z,3.77
2023-04-30T10:49:38.341Z,2.80
2023-04-30T10:50:50.662Z,3.13
2023-04-30T10:51:54.116Z,3.70
2023-04-30T10:53:05.341Z,3.53
2023-04-30T10:54:07.537Z,2.70
2023-04-30T10:55:11.798Z,3.17
2023-04-30T10:56:32.225Z,2.73
2023-04-30T10:57:40.558Z,3.07
2023-04-30T10:58:45.461Z,2.67
2023-04-30T10:59:54.500Z,4.50
2023-04-30T11:01:04.310Z,2.77
2023-04-30T11:02:06.749Z,5.30
2023-04-30T11:03:08.814Z,3.27
2023-04-30T11:04:12.610Z,4.40
2023-04-30T11:05:18.486Z,3.53
2023-04-30T11:06:26.756Z,3.83
2023-04-30T11:07:34.541Z,2.93
2023-04-30T11:08:36.419Z,3.80
2023-04-30T11:09:37.745Z,4.43
2023-04-30T11:11:01.642Z,3.93
2023-04-30T11:12:05.769Z,4.43
2023-04-30T11:13:07.785Z,3.67
2023-04-30T11:14:11.790Z,3.73
2023-04-30T11:15:17.985Z,3.57
2023-04-30T11:16:20.181Z,3.00
2023-04-30T11:17:22.866Z,4.17
2023-04-30T11:18:27.044Z,5.03
2023-04-30T11:19:36.265Z,5.40
2023-04-30T11:21:19.690Z,3.37
2023-04-30T11:22:24.634Z,4.17
2023-04-30T11:23:38.360Z,3.47
2023-04-30T11:24:52.378Z,3.17
2023-04-30T11:25:54.715Z,3.13
2023-04-30T11:27:06.004Z,5.10
2023-04-30T11:28:07.636Z,4.17
2023-04-30T11:29:09.570Z,3.30
2023-04-30T11:30:12.499Z,4.00
2023-04-30T11:31:15.533Z,3.90
2023-04-30T11:32:18.215Z,4.27
2023-04-30T11:33:20.053Z,4.50
2023-04-30T11:34:21.898Z,5.87
2023-04-30T11:35:23.239Z,3.30
2023-04-30T11:36:25.388Z,4.53
2023-04-30T11:37:31.048Z,3.73
2023-04-30T11:38:36.175Z,3.30
2023-04-30T11:39:38.173Z,3.93
2023-04-30T11:40:40.272Z,3.60
2023-04-30T11:41:43.954Z,5.43
2023-04-30T11:42:46.587Z,4.80
2023-04-30T11:43:48.087Z,3.50
2023-04-30T11:44:49.377Z,4.40
2023-04-30T11:45:59.601Z,6.30
2023-04-30T11:47:03.547Z,4.72
2023-04-30T11:48:05.147Z,5.18
2023-04-30T11:49:08.056Z,4.83
2023-04-30T11:50:10.439Z,3.77
2023-04-30T11:51:15.468Z,3.33
2023-04-30T11:52:20.668Z,4.47
2023-04-30T11:53:26.500Z,3.57
2023-04-30T11:54:31.158Z,3.85
2023-04-30T11:55:32.573Z,7.33
2023-04-30T11:56:39.080Z,3.83
2023-04-30T11:57:42.393Z,4.70
2023-04-30T11:58:46.316Z,5.33
2023-04-30T11:59:47.655Z,2.60
2023-04-30T12:00:49.218Z,2.67
2023-04-30T12:01:50.590Z,3.07
2023-04-30T12:02:52.189Z,3.00
2023-04-30T12:03:55.828Z,3.60
2023-04-30T12:04:58.637Z,3.27
2023-04-30T12:05:59.994Z,4.47
2023-04-30T12:07:02.405Z,2.77
2023-04-30T12:08:06.409Z,2.90
2023-04-30T12:09:09.400Z,3.23
2023-04-30T12:10:10.800Z,2.63
2023-04-30T12:11:28.262Z,2.47
2023-04-30T12:12:30.007Z,3.30
2023-04-30T12:13:31.855Z,2.80
2023-04-30T12:14:34.815Z,2.83
2023-04-30T12:15:37.090Z,3.47
2023-04-30T12:16:51.006Z,2.97
2023-04-30T12:17:53.584Z,3.43
2023-04-30T12:18:55.878Z,3.60
2023-04-30T12:19:57.210Z,3.73
2023-04-30T12:20:58.535Z,2.92
2023-04-30T12:22:00.097Z,3.25
2023-04-30T12:23:01.736Z,4.30
2023-04-30T12:24:03.646Z,2.53
2023-04-30T12:25:09.942Z,2.73
2023-04-30T12:26:11.280Z,3.10
2023-04-30T12:27:12.573Z,3.33
2023-04-30T12:28:13.993Z,2.30
2023-04-30T12:29:16.240Z,2.97
2023-04-30T12:30:25.273Z,3.95
2023-04-30T12:31:27.341Z,2.77
2023-04-30T12:32:28.755Z,3.72
2023-04-30T12:33:30.938Z,2.80
2023-04-30T12:34:33.873Z,2.72
2023-04-30T12:35:35.500Z,3.35
2023-04-30T12:36:37.320Z,2.90
2023-04-30T12:37:41.940Z,3.47
2023-04-30T12:38:43.986Z,4.37
2023-04-30T12:39:45.307Z,2.30
2023-04-30T12:40:47.179Z,2.83
2023-04-30T12:41:49.068Z,7.07
2023-04-30T12:42:51.476Z,2.33
2023-04-30T12:44:12.752Z,2.63
2023-04-30T12:45:34.034Z,3.13
2023-04-30T12:46:35.604Z,2.60
2023-04-30T12:47:40.932Z,3.40
2023-04-30T12:48:43.992Z,4.57
2023-04-30T12:49:46.151Z,3.53
2023-04-30T12:50:59.005Z,2.90
2023-04-30T12:52:01.583Z,2.65
2023-04-30T12:53:03.010Z,3.78
2023-04-30T12:54:04.344Z,2.53
2023-04-30T12:55:19.022Z,2.83
2023-04-30T12:56:22.268Z,2.80
2023-04-30T12:57:23.750Z,3.23
2023-04-30T12:58:30.618Z,2.20
2023-04-30T12:59:32.855Z,3.67
2023-04-30T13:00:44.022Z,2.70
2023-04-30T13:01:46.066Z,3.20
2023-04-30T13:02:47.526Z,3.93
2023-04-30T13:03:49.053Z,2.20
2023-04-30T13:04:51.020Z,3.20
2023-04-30T13:05:52.492Z,2.77
2023-04-30T13:06:54.035Z,2.30
2023-04-30T13:08:01.436Z,2.63
2023-04-30T13:09:03.515Z,2.90
2023-04-30T13:10:07.120Z,3.42
2023-04-30T13:11:10.365Z,3.47
2023-04-30T13:12:12.778Z,3.90
2023-04-30T13:13:15.514Z,4.32
2023-04-30T13:14:17.737Z,2.53
2023-04-30T13:15:19.181Z,2.80
2023-04-30T13:16:20.623Z,3.30
2023-04-30T13:17:23.231Z,5.40
2023-04-30T13:18:24.595Z,3.45
2023-04-30T13:19:26.429Z,2.72
2023-04-30T13:20:27.794Z,2.30
2023-04-30T13:21:29.229Z,2.83
2023-04-30T13:22:33.314Z,2.40
2023-04-30T13:23:44.536Z,2.60
2023-04-30T13:24:52.985Z,2.75
2023-04-30T13:25:54.366Z,3.17
2023-04-30T13:26:57.738Z,1.95
2023-04-30T13:27:59.686Z,3.60
2023-04-30T13:29:01.547Z,4.25
2023-04-30T13:30:03.988Z,5.00
2023-04-30T13:31:05.505Z,2.88
2023-04-30T13:32:06.829Z,3.55
2023-04-30T13:33:08.255Z,2.72
2023-04-30T13:34:10.140Z,2.83
2023-04-30T13:35:11.921Z,2.70
2023-04-30T13:36:13.340Z,3.15
2023-04-30T13:37:14.746Z,3.25
2023-04-30T13:38:16.067Z,2.75
2023-04-30T13:39:17.376Z,3.40
2023-04-30T13:40:19.085Z,2.70
2023-04-30T13:41:22.046Z,2.50
2023-04-30T13:42:24.495Z,3.25
2023-04-30T13:43:25.858Z,3.13
2023-04-30T13:44:27.334Z,3.17
2023-04-30T13:45:29.096Z,2.70
2023-04-30T13:46:30.735Z,3.95
2023-04-30T13:47:32.117Z,3.28
2023-04-30T13:48:33.579Z,2.67
2023-04-30T13:49:37.823Z,2.00
2023-04-30T13:50:39.101Z,2.20
2023-04-30T13:51:40.738Z,3.90
2023-04-30T13:52:42.146Z,3.10
2023-04-30T13:53:43.560Z,2.03
2023-04-30T13:54:45.046Z,2.67
2023-04-30T13:55:46.371Z,2.08
2023-04-30T13:56:48.741Z,3.13
2023-04-30T13:57:50.028Z,3.90
2023-04-30T13:58:51.544Z,3.25
2023-04-30T13:59:54.003Z,2.58
2023-04-30T14:00:56.159Z,2.60
2023-04-30T14:01:57.640Z,3.28
2023-04-30T14:02:59.077Z,3.30
2023-04-30T14:04:00.522Z,2.90
2023-04-30T14:05:06.657Z,4.03
2023-04-30T14:06:08.441Z,3.47
2023-04-30T14:07:11.633Z,2.28